Dades meteomassalio
Diari Summary for Diciembre 12, 2017 Units:  Metric    English   Both
« Previous Day
Next Day »
Diari Semanal Mensual Anual Personalitzat
  Maxima: Minima: Mijana:
Temperatura: -17.8 °C -18.7 °C -14.6 °C
Rosada: -17.8 °C -21.7 °C -18.6 °C
Humitat: Humidity % 43 % 61 %
Velocitat del vent: 0 km/h 0 km/h 32.7 km/h
Racha vent: 0 km/h - -
Vent:- - WNW
Pressio: 0 hPa 34120.7 hPa -
Pluja: 0 mm    
Historical Graphs
 
 
Tabular Data for Diciembre 12, 2017
Time Temperature Dew Point Pressure Wind Wind Speed Wind Gust Humidity Rainfall Rate (Hourly) solar Conditions
-17.8 °C -17.8 °C 0 hPa Calm     Humidity % 0 mm SolarRadiationWatts/m^2 W/m2 Conditions
00:07 -14.1 °C -16.3 °C 34120.7 hPa NNW 31.1 km/h 31.1 km/h 75 % 0 mm 0.0 W/m2 CLR
00:12 -14.4 °C -16.7 °C 34130.9 hPa NNW 49.2 km/h 49.2 km/h 75 % 0 mm 0.0 W/m2 CLR
00:27 -14.4 °C -16.8 °C 34144.4 hPa NW 29.8 km/h 29.8 km/h 74 % 0 mm 0.0 W/m2 CLR
00:32 -14.4 °C -16.8 °C 34144.4 hPa NW 32.8 km/h 32.8 km/h 74 % 0 mm 0.0 W/m2 CLR
00:37 -14.4 °C -16.7 °C 34144.4 hPa NW 32.8 km/h 32.8 km/h 75 % 0 mm 0.0 W/m2 CLR
00:42 -14.4 °C -16.7 °C 34154.6 hPa NW 41.7 km/h 41.7 km/h 75 % 0 mm 0.0 W/m2 CLR
00:47 -14.4 °C -16.8 °C 34154.6 hPa NW 29.8 km/h 29.8 km/h 74 % 0 mm 0.0 W/m2 CLR
00:52 -14.4 °C -16.7 °C 34164.7 hPa NW 38.8 km/h 38.8 km/h 75 % 0 mm 0.0 W/m2 CLR
00:57 -14.4 °C -16.8 °C 34164.7 hPa NNW 41.7 km/h 41.7 km/h 74 % 0 mm 0.0 W/m2 CLR
01:07 -14.4 °C -16.7 °C 34164.7 hPa NW 38.8 km/h 38.8 km/h 75 % 0 mm 0.0 W/m2 CLR
01:13 -14.4 °C -16.7 °C 34164.7 hPa NNW 29.8 km/h 29.8 km/h 75 % 0 mm 0.0 W/m2 CLR
01:18 -14.4 °C -16.7 °C 34178.3 hPa NW 29.8 km/h 29.8 km/h 75 % 0 mm 0.0 W/m2 CLR
01:28 -14.4 °C -16.8 °C 34178.3 hPa NNW 38.8 km/h 38.8 km/h 74 % 0 mm 0.0 W/m2 CLR
01:43 -14.4 °C -16.8 °C 34178.3 hPa NW 29.8 km/h 29.8 km/h 74 % 0 mm 0.0 W/m2 CLR
01:48 -14.4 °C -16.8 °C 34178.3 hPa WNW 29.8 km/h 29.8 km/h 74 % 0 mm 0.0 W/m2 CLR
01:53 -14.4 °C -16.9 °C 34188.4 hPa NNW 29.8 km/h 29.8 km/h 73 % 0 mm 0.0 W/m2 CLR
01:58 -14.4 °C -16.9 °C 34188.4 hPa NNW 32.8 km/h 32.8 km/h 73 % 0 mm 0.0 W/m2 CLR
02:03 -14.4 °C -16.9 °C 34188.4 hPa NNW 29.8 km/h 29.8 km/h 73 % 0 mm 0.0 W/m2 CLR
02:13 -14.4 °C -17 °C 34198.6 hPa NW 29.8 km/h 29.8 km/h 72 % 0 mm 0.0 W/m2 CLR
02:18 -14.4 °C -17 °C 34198.6 hPa NW 29.8 km/h 29.8 km/h 72 % 0 mm 0.0 W/m2 CLR
02:23 -14.4 °C -17.1 °C 34198.6 hPa NNW 29.8 km/h 29.8 km/h 71 % 0 mm 0.0 W/m2 CLR
02:28 -14.4 °C -17.1 °C 34198.6 hPa NW 26.9 km/h 26.9 km/h 71 % 0 mm 0.0 W/m2 CLR
02:33 -14.4 °C -17.2 °C 34198.6 hPa NW 29.8 km/h 29.8 km/h 70 % 0 mm 0.0 W/m2 CLR
02:38 -14.4 °C -17.2 °C 34212.1 hPa NNW 29.8 km/h 29.8 km/h 70 % 0 mm 0.0 W/m2 CLR
02:43 -14.4 °C -17.2 °C 34212.1 hPa NW 20.9 km/h 20.9 km/h 70 % 0 mm 0.0 W/m2 CLR
02:48 -14.7 °C -17.5 °C 34212.1 hPa West 17.9 km/h 17.9 km/h 70 % 0 mm 0.0 W/m2 CLR
02:53 -14.7 °C -17.6 °C 34222.3 hPa WNW 26.9 km/h 26.9 km/h 69 % 0 mm 0.0 W/m2 CLR
02:58 -14.7 °C -17.6 °C 34222.3 hPa WNW 26.9 km/h 26.9 km/h 69 % 0 mm 0.0 W/m2 CLR
03:03 -14.7 °C -17.6 °C 34222.3 hPa NW 23.8 km/h 23.8 km/h 69 % 0 mm 0.0 W/m2 CLR
03:13 -15 °C -17.9 °C 34222.3 hPa NW 23.3 km/h 23.3 km/h 69 % 0 mm 0.0 W/m2 CLR
03:18 -15 °C -17.9 °C 34235.8 hPa NW 29.8 km/h 29.8 km/h 69 % 0 mm 0.0 W/m2 CLR
03:23 -15 °C -18 °C 34235.8 hPa WNW 20.9 km/h 20.9 km/h 68 % 0 mm 0.0 W/m2 CLR
03:28 -14.7 °C -17.7 °C 34235.8 hPa NW 23.8 km/h 23.8 km/h 68 % 0 mm 0.0 W/m2 CLR
03:33 -14.7 °C -17.6 °C 34235.8 hPa West 17.9 km/h 17.9 km/h 69 % 0 mm 0.0 W/m2 CLR
03:43 -15 °C -18 °C 34235.8 hPa NNW 18.2 km/h 18.2 km/h 68 % 0 mm 0.0 W/m2 CLR
03:53 -15 °C -18 °C 34246 hPa West 17.9 km/h 17.9 km/h 68 % 0 mm 0.0 W/m2 CLR
04:03 -14.7 °C -17.8 °C 34246 hPa NNW 26.9 km/h 26.9 km/h 67 % 0 mm 0.0 W/m2 CLR
04:13 -14.7 °C -17.9 °C 34256.2 hPa NW 23.3 km/h 23.3 km/h 66 % 0 mm 0.0 W/m2 CLR
04:18 -14.4 °C -17.8 °C 34256.2 hPa WNW 18.2 km/h 18.2 km/h 65 % 0 mm 0.0 W/m2 CLR
04:33 -14.7 °C -18.1 °C 34256.2 hPa NW 29.8 km/h 29.8 km/h 65 % 0 mm 0.0 W/m2 CLR
04:38 -14.7 °C -18.1 °C 34256.2 hPa NNW 23.8 km/h 23.8 km/h 65 % 0 mm 0.0 W/m2 CLR
04:43 -14.7 °C -18.1 °C 34256.2 hPa NNW 26.9 km/h 26.9 km/h 65 % 0 mm 0.0 W/m2 CLR
04:48 -14.7 °C -18.1 °C 34256.2 hPa Calm     65 % 0 mm 0.0 W/m2 CLR
04:53 -14.7 °C -18.1 °C 34269.7 hPa NNW 23.8 km/h 23.8 km/h 65 % 0 mm 0.0 W/m2 CLR
04:58 -14.7 °C -18.1 °C 34256.2 hPa WNW 23.8 km/h 23.8 km/h 65 % 0 mm 0.0 W/m2 CLR
05:03 -14.7 °C -18.1 °C 34269.7 hPa NW 26.9 km/h 26.9 km/h 65 % 0 mm 0.0 W/m2 CLR
05:08 -14.7 °C -18.1 °C 34269.7 hPa NW 28.5 km/h 28.5 km/h 65 % 0 mm 0.0 W/m2 CLR
05:13 -14.7 °C -17.9 °C 34269.7 hPa NW 32.8 km/h 32.8 km/h 66 % 0 mm 0.0 W/m2 CLR
05:18 -14.7 °C -17.9 °C 34269.7 hPa NW 29.8 km/h 29.8 km/h 66 % 0 mm 0.0 W/m2 CLR
05:33 -14.4 °C -17.8 °C 34279.9 hPa North 44.7 km/h 44.7 km/h 65 % 0 mm 0.0 W/m2 CLR
05:38 -14.4 °C -17.8 °C 34293.4 hPa North 53.6 km/h 53.6 km/h 65 % 0 mm 0.0 W/m2 CLR
05:43 -14.4 °C -17.8 °C 34293.4 hPa North 47.6 km/h 47.6 km/h 65 % 0 mm 0.0 W/m2 CLR
05:53 -14.4 °C -17.8 °C 34303.6 hPa NNW 23.8 km/h 23.8 km/h 65 % 0 mm 0.0 W/m2 CLR
05:58 -14.4 °C -17.7 °C 34303.6 hPa North 31.1 km/h 31.1 km/h 66 % 0 mm 0.0 W/m2 CLR
06:08 -14.7 °C -18.1 °C 34313.7 hPa North 32.8 km/h 32.8 km/h 65 % 0 mm 0.0 W/m2 CLR
06:13 -14.7 °C -18.1 °C 34313.7 hPa NW 31.1 km/h 31.1 km/h 65 % 0 mm 0.0 W/m2 CLR
06:18 -14.4 °C -17.8 °C 34313.7 hPa NW 29.8 km/h 29.8 km/h 65 % 0 mm 0.0 W/m2 CLR
06:23 -14.4 °C -17.9 °C 34313.7 hPa WNW 23.8 km/h 23.8 km/h 64 % 0 mm 0.0 W/m2 CLR
06:33 -14.7 °C -18.2 °C 34327.3 hPa NW 26.9 km/h 26.9 km/h 64 % 0 mm 0.0 W/m2 CLR
06:38 -14.7 °C -18.2 °C 34327.3 hPa NW 41.7 km/h 41.7 km/h 64 % 0 mm 0.0 W/m2 CLR
06:43 -14.7 °C -18.3 °C 34327.3 hPa WNW 29.8 km/h 29.8 km/h 63 % 0 mm 0.0 W/m2 CLR
06:48 -14.7 °C -18.3 °C 34327.3 hPa NW 41.7 km/h 41.7 km/h 63 % 0 mm 0.0 W/m2 CLR
06:53 -14.7 °C -18.2 °C 34337.4 hPa NW 56.6 km/h 56.6 km/h 64 % 0 mm 0.0 W/m2 CLR
07:03 -14.7 °C -18.2 °C 34347.6 hPa North 44.7 km/h 44.7 km/h 64 % 0 mm 0.0 W/m2 CLR
07:13 -14.7 °C -18.2 °C 34347.6 hPa NW 36.2 km/h 36.2 km/h 64 % 0 mm 0.0 W/m2 CLR
07:29 -14.7 °C -18.1 °C 34347.6 hPa NW 47.6 km/h 47.6 km/h 65 % 0 mm 0.0 W/m2 CLR
07:39 -14.7 °C -17.9 °C 34361.1 hPa NW 32.8 km/h 32.8 km/h 66 % 0 mm 0.0 W/m2 CLR
07:44 -14.7 °C -17.9 °C 34371.3 hPa NW 47.6 km/h 47.6 km/h 66 % 0 mm 0.0 W/m2 CLR
07:49 -14.7 °C -17.9 °C 34371.3 hPa NW 47.6 km/h 47.6 km/h 66 % 0 mm 0.0 W/m2 CLR
07:54 -14.7 °C -18.1 °C 34371.3 hPa NW 32.8 km/h 32.8 km/h 65 % 0 mm 0.0 W/m2 CLR
08:04 -14.7 °C -18.1 °C 34384.8 hPa NW 32.8 km/h 32.8 km/h 65 % 0 mm 0.0 W/m2 CLR
08:09 -14.7 °C -18.1 °C 34384.8 hPa NW 32.8 km/h 32.8 km/h 65 % 0 mm 0.0 W/m2 OVC
08:14 -14.7 °C -18.1 °C 34395 hPa NW 35.7 km/h 35.7 km/h 65 % 0 mm 0.0 W/m2 OVC
08:19 -14.7 °C -18.1 °C 34395 hPa NNW 35.7 km/h 35.7 km/h 65 % 0 mm 0.0 W/m2 OVC
08:34 -14.7 °C -18.2 °C 34405.1 hPa NNW 29.8 km/h 29.8 km/h 64 % 0 mm 14.0 W/m2 BKN
08:39 -14.7 °C -18.2 °C 34405.1 hPa NW 20.9 km/h 20.9 km/h 64 % 0 mm 18.0 W/m2 BKN
08:44 -14.7 °C -18.2 °C 34405.1 hPa WNW 18.2 km/h 21.2 km/h 64 % 0 mm 23.0 W/m2 BKN
08:49 -14.7 °C -18.2 °C 34405.1 hPa NW 26.9 km/h 26.9 km/h 64 % 0 mm 25.0 W/m2 BKN
08:54 -14.7 °C -18.2 °C 34405.1 hPa WNW 29.8 km/h 29.8 km/h 64 % 0 mm 25.0 W/m2 BKN
08:59 -14.7 °C -18.2 °C 34418.7 hPa WNW 29.8 km/h 29.8 km/h 64 % 0 mm 23.0 W/m2 BKN
09:04 -15 °C -18.6 °C 34418.7 hPa WNW 32.8 km/h 32.8 km/h 63 % 0 mm 21.0 W/m2 BKN
09:09 -15 °C -18.6 °C 34418.7 hPa NW 41.7 km/h 41.7 km/h 63 % 0 mm 23.0 W/m2 BKN
09:14 -15 °C -18.6 °C 34418.7 hPa NW 20.9 km/h 20.9 km/h 63 % 0 mm 25.0 W/m2 BKN
09:19 -15 °C -18.6 °C 34428.8 hPa NW 15.6 km/h 15.6 km/h 63 % 0 mm 28.0 W/m2 BKN
09:24 -15 °C -18.6 °C 34428.8 hPa WNW 26.9 km/h 26.9 km/h 63 % 0 mm 30.0 W/m2 BKN
09:29 -15 °C -18.6 °C 34428.8 hPa NW 29.8 km/h 29.8 km/h 63 % 0 mm 30.0 W/m2 BKN
09:39 -15 °C -18.6 °C 34428.8 hPa NNW 41.7 km/h 41.7 km/h 63 % 0 mm 47.0 W/m2 BKN
09:44 -14.7 °C -18.3 °C 34428.8 hPa NW 36.2 km/h 36.2 km/h 63 % 0 mm 141.0 W/m2 SCT
09:49 -14.7 °C -18.4 °C 34428.8 hPa NW 29.8 km/h 29.8 km/h 62 % 0 mm 171.0 W/m2 CLR
09:54 -14.7 °C -18.6 °C 34442.4 hPa NW 29.8 km/h 29.8 km/h 61 % 0 mm 144.0 W/m2 CLR
09:59 -14.4 °C -18.4 °C 34442.4 hPa WNW 41.7 km/h 41.7 km/h 60 % 0 mm 137.0 W/m2 CLR
10:04 -14.4 °C -18.4 °C 34452.6 hPa NNW 31.1 km/h 31.1 km/h 60 % 0 mm 156.0 W/m2 CLR
10:09 -14.1 °C -18.1 °C 34452.6 hPa NNW 32.8 km/h 32.8 km/h 60 % 0 mm 167.0 W/m2 CLR
10:14 -14.1 °C -18.3 °C 34452.6 hPa NNW 36.2 km/h 36.2 km/h 58 % 0 mm 237.0 W/m2 CLR
10:19 -14.1 °C -18.3 °C 34452.6 hPa NW 35.7 km/h 35.7 km/h 58 % 0 mm 250.0 W/m2 CLR
10:25 -14.1 °C -18.2 °C 34452.6 hPa NNW 38.8 km/h 38.8 km/h 59 % 0 mm 260.0 W/m2 CLR
10:30 -13.8 °C -18.1 °C 34452.6 hPa NW 47.6 km/h 47.6 km/h 58 % 0 mm 271.0 W/m2 CLR
10:35 -13.8 °C -17.9 °C 34452.6 hPa NW 38.8 km/h 38.8 km/h 59 % 0 mm 283.0 W/m2 CLR
10:40 -13.8 °C -18.1 °C 34462.7 hPa North 53.6 km/h 53.6 km/h 58 % 0 mm 294.0 W/m2 CLR
10:44 -13.8 °C -18.1 °C 34452.6 hPa NW 56.6 km/h 56.6 km/h 58 % 0 mm 302.0 W/m2 CLR
11:35 -13.8 °C -18.2 °C 34476.3 hPa North 74.5 km/h 74.5 km/h 57 % 0 mm 366.0 W/m2 CLR
11:40 -13.2 °C -17.7 °C 34476.3 hPa NW 53.6 km/h 53.6 km/h 56 % 0 mm 387.0 W/m2 CLR
11:45 -13.2 °C -17.6 °C 34476.3 hPa NW 53.6 km/h 53.6 km/h 57 % 0 mm 394.0 W/m2 CLR
11:50 -13.2 °C -17.9 °C 34486.4 hPa NW 44.7 km/h 44.7 km/h 55 % 0 mm 406.0 W/m2 CLR
11:55 -13.2 °C -17.9 °C 34486.4 hPa NW 47.6 km/h 47.6 km/h 55 % 0 mm 397.0 W/m2 CLR
12:05 -12.8 °C -17.6 °C 34486.4 hPa North 35.7 km/h 35.7 km/h 55 % 0 mm 487.0 W/m2 CLR
12:10 -12.8 °C -17.7 °C 34496.6 hPa NW 41.7 km/h 41.7 km/h 54 % 0 mm 524.0 W/m2 CLR
12:15 -12.8 °C -17.7 °C 34496.6 hPa North 44.7 km/h 44.7 km/h 54 % 0 mm 540.0 W/m2 CLR
12:20 -12.6 °C -17.6 °C 34496.6 hPa North 53.6 km/h 53.6 km/h 53 % 0 mm 287.0 W/m2 CLR
12:25 -12.8 °C -17.7 °C 34496.6 hPa North 44.7 km/h 44.7 km/h 54 % 0 mm 550.0 W/m2 CLR
12:30 -12.8 °C -17.9 °C 34496.6 hPa North 56.6 km/h 56.6 km/h 53 % 0 mm 550.0 W/m2 CLR
12:35 -12.8 °C -17.7 °C 34496.6 hPa NNW 49.2 km/h 49.2 km/h 54 % 0 mm 487.0 W/m2 CLR
12:40 -12.8 °C -17.7 °C 34496.6 hPa North 50.7 km/h 50.7 km/h 54 % 0 mm 81.0 W/m2 CLR
12:45 -13.2 °C -18 °C 34496.6 hPa North 51.8 km/h 51.8 km/h 54 % 0 mm 450.0 W/m2 CLR
12:50 -12.8 °C -17.6 °C 34496.6 hPa NNW 44.7 km/h 44.7 km/h 55 % 0 mm 524.0 W/m2 CLR
12:55 -12.6 °C -17.4 °C 34496.6 hPa NNW 59.5 km/h 59.5 km/h 54 % 0 mm 506.0 W/m2 CLR
13:00 -12.6 °C -17.6 °C 34496.6 hPa NW 41.4 km/h 41.4 km/h 53 % 0 mm 545.0 W/m2 CLR
13:05 -12.2 °C -17.6 °C 34496.6 hPa North 53.6 km/h 53.6 km/h 51 % 0 mm 506.0 W/m2 CLR
13:10 -12.6 °C -17.9 °C 34496.6 hPa NW 50.7 km/h 50.7 km/h 51 % 0 mm 497.0 W/m2 CLR
13:15 -12.2 °C -17.6 °C 34496.6 hPa NNW 62.6 km/h 62.6 km/h 51 % 0 mm 450.0 W/m2 CLR
13:20 -12.2 °C -17.6 °C 34496.6 hPa NNE 33.6 km/h 33.6 km/h 51 % 0 mm 443.0 W/m2 CLR
13:25 -12.6 °C -18 °C 34496.6 hPa NNW 50.7 km/h 50.7 km/h 50 % 0 mm 429.0 W/m2 CLR
13:30 -12.6 °C -18 °C 34486.4 hPa NNW 62.1 km/h 62.1 km/h 50 % 0 mm 425.0 W/m2 CLR
13:35 -12.2 °C -17.7 °C 34486.4 hPa NNW 62.6 km/h 62.6 km/h 50 % 0 mm 418.0 W/m2 CLR
13:45 -12.2 °C -17.9 °C 34486.4 hPa North 53.6 km/h 53.6 km/h 49 % 0 mm 413.0 W/m2 CLR
13:55 -12.2 °C -18.1 °C 34486.4 hPa NNW 50.7 km/h 50.7 km/h 48 % 0 mm 406.0 W/m2 CLR
14:00 -12.2 °C -18.1 °C 34486.4 hPa North 50.7 km/h 50.7 km/h 48 % 0 mm 401.0 W/m2 CLR
14:10 -12.2 °C -18.2 °C 34486.4 hPa NNW 47.6 km/h 47.6 km/h 47 % 0 mm 392.0 W/m2 CLR
14:11 -12.2 °C -18.2 °C 34486.4 hPa NNW 47.6 km/h 47.6 km/h 47 % 0 mm 392.0 W/m2 CLR
14:16 -12.2 °C -18.4 °C 34496.6 hPa North 59.5 km/h 59.5 km/h 46 % 0 mm 388.0 W/m2 CLR
14:21 -12.2 °C -18.2 °C 34496.6 hPa North 62.6 km/h 62.6 km/h 47 % 0 mm 378.0 W/m2 CLR
14:26 -12.2 °C -18.2 °C 34496.6 hPa North 56.6 km/h 56.6 km/h 47 % 0 mm 369.0 W/m2 CLR
14:31 -12.2 °C -17.9 °C 34496.6 hPa North 68.6 km/h 68.6 km/h 49 % 0 mm 367.0 W/m2 CLR
14:49 -11.9 °C -17.8 °C 34510.1 hPa North 53.6 km/h 53.6 km/h 48 % 0 mm 339.0 W/m2 CLR
15:24 -12.2 °C -18.1 °C 34510.1 hPa NNW 41.7 km/h 41.7 km/h 48 % 0 mm 265.0 W/m2 CLR
15:29 -12.2 °C -18.2 °C 34520.3 hPa North 38.8 km/h 38.8 km/h 47 % 0 mm 255.0 W/m2 CLR
15:39 -12.2 °C -18.2 °C 34520.3 hPa NNE 59.5 km/h 59.5 km/h 47 % 0 mm 232.0 W/m2 CLR
15:44 -12.2 °C -18.4 °C 34533.8 hPa NNE 53.6 km/h 53.6 km/h 46 % 0 mm 218.0 W/m2 CLR
15:49 -12.2 °C -18.2 °C 34533.8 hPa NNW 57 km/h 57 km/h 47 % 0 mm 204.0 W/m2 CLR
15:59 -12.6 °C -18.7 °C 34533.8 hPa NNE 41.7 km/h 41.7 km/h 46 % 0 mm 181.0 W/m2 CLR
16:04 -12.6 °C -18.7 °C 34533.8 hPa North 50.7 km/h 50.7 km/h 46 % 0 mm 165.0 W/m2 CLR
16:09 -12.6 °C -18.8 °C 34544 hPa North 53.6 km/h 53.6 km/h 45 % 0 mm 148.0 W/m2 CLR
16:14 -12.6 °C -18.8 °C 34544 hPa NNW 53.6 km/h 53.6 km/h 45 % 0 mm 137.0 W/m2 CLR
16:19 -12.6 °C -19 °C 34544 hPa NNE 49.2 km/h 49.2 km/h 44 % 0 mm 123.0 W/m2 CLR
16:24 -12.6 °C -19.2 °C 34544 hPa NNW 38.8 km/h 38.8 km/h 43 % 0 mm 111.0 W/m2 CLR
16:34 -12.8 °C -19.5 °C 34544 hPa North 41.7 km/h 41.7 km/h 43 % 0 mm 84.0 W/m2 CLR
16:39 -12.8 °C -19.3 °C 34544 hPa NNW 41.7 km/h 41.7 km/h 44 % 0 mm 67.0 W/m2 SCT
16:44 -12.8 °C -19.3 °C 34544 hPa North 50.7 km/h 50.7 km/h 44 % 0 mm 56.0 W/m2 SCT
16:49 -12.8 °C -19.3 °C 34544 hPa North 47.6 km/h 47.6 km/h 44 % 0 mm 49.0 W/m2 SCT
16:54 -13.2 °C -19.4 °C 34554.1 hPa NNW 50.7 km/h 50.7 km/h 45 % 0 mm 35.0 W/m2 BKN
16:59 -13.2 °C -19.4 °C 34554.1 hPa NW 38.8 km/h 38.8 km/h 45 % 0 mm 28.0 W/m2 BKN
17:14 -13.2 °C -19.1 °C 34554.1 hPa NNW 32.8 km/h 32.8 km/h 47 % 0 mm 12.0 W/m2 BKN
17:19 -13.4 °C -19.2 °C 34567.7 hPa NW 26.9 km/h 26.9 km/h 48 % 0 mm 11.0 W/m2 BKN
17:24 -13.4 °C -19.2 °C 34567.7 hPa NNW 35.7 km/h 35.7 km/h 48 % 0 mm 7.0 W/m2 BKN
17:34 -13.4 °C -19.1 °C 34577.8 hPa NNW 38.8 km/h 38.8 km/h 49 % 0 mm 0.0 W/m2 OVC
17:39 -13.8 °C -19.2 °C 34577.8 hPa NNW 35.7 km/h 35.7 km/h 50 % 0 mm 0.0 W/m2 OVC
17:44 -13.8 °C -19.2 °C 34577.8 hPa North 33.6 km/h 33.6 km/h 50 % 0 mm 0.0 W/m2 CLR
17:45 -13.8 °C -19.1 °C 34577.8 hPa NNW 32.8 km/h 32.8 km/h 51 % 0 mm 0.0 W/m2 CLR
17:50 -13.8 °C -19.1 °C 34591.4 hPa North 41.7 km/h 41.7 km/h 51 % 0 mm 0.0 W/m2 CLR
17:55 -13.8 °C -19.1 °C 34591.4 hPa North 44.7 km/h 44.7 km/h 51 % 0 mm 0.0 W/m2 CLR
18:00 -13.8 °C -19.1 °C 34591.4 hPa North 38.8 km/h 38.8 km/h 51 % 0 mm 0.0 W/m2 CLR
18:05 -14.1 °C -19.2 °C 34591.4 hPa NNW 29.8 km/h 29.8 km/h 52 % 0 mm 0.0 W/m2 CLR
18:10 -14.1 °C -19.2 °C 34591.4 hPa NNW 28.5 km/h 28.5 km/h 52 % 0 mm 0.0 W/m2 CLR
18:20 -14.1 °C -19 °C 34601.5 hPa NW 20.9 km/h 20.9 km/h 53 % 0 mm 0.0 W/m2 CLR
18:25 -14.4 °C -19.2 °C 34601.5 hPa NNW 23.8 km/h 23.8 km/h 54 % 0 mm 0.0 W/m2 CLR
18:30 -14.4 °C -19.2 °C 34601.5 hPa NW 23.8 km/h 23.8 km/h 54 % 0 mm 0.0 W/m2 CLR
18:35 -14.4 °C -19.1 °C 34611.7 hPa NW 20.9 km/h 20.9 km/h 55 % 0 mm 0.0 W/m2 CLR
18:40 -14.7 °C -19.2 °C 34611.7 hPa NW 15 km/h 15 km/h 56 % 0 mm 0.0 W/m2 CLR
18:45 -14.7 °C -19.2 °C 34611.7 hPa NW 12.9 km/h 12.9 km/h 56 % 0 mm 0.0 W/m2 CLR
18:50 -14.7 °C -19.1 °C 34611.7 hPa NW 11.9 km/h 11.9 km/h 57 % 0 mm 0.0 W/m2 CLR
19:00 -15.3 °C -19.5 °C 34625.2 hPa NW 12.9 km/h 12.9 km/h 58 % 0 mm 0.0 W/m2 CLR
19:05 -15.3 °C -19.5 °C 34625.2 hPa WNW 15 km/h 15 km/h 58 % 0 mm 0.0 W/m2 CLR
19:11 -15.6 °C -19.8 °C 34635.4 hPa WNW 17.9 km/h 17.9 km/h 58 % 0 mm 0.0 W/m2 CLR
19:16 -15.6 °C -19.7 °C 34635.4 hPa NW 17.9 km/h 17.9 km/h 59 % 0 mm 0.0 W/m2 CLR
19:21 -15.9 °C -19.9 °C 34635.4 hPa NW 11.9 km/h 11.9 km/h 59 % 0 mm 0.0 W/m2 CLR
19:26 -15.9 °C -19.8 °C 34645.6 hPa NW 9 km/h 9 km/h 60 % 0 mm 0.0 W/m2 CLR
19:36 -16.2 °C -20 °C 34659.1 hPa WNW 9 km/h 9 km/h 61 % 0 mm 0.0 W/m2 CLR
19:46 -16.2 °C -20 °C 34669.3 hPa WNW 17.9 km/h 17.9 km/h 61 % 0 mm 0.0 W/m2 CLR
19:51 -16.6 °C -20.2 °C 34669.3 hPa NW 9 km/h 9 km/h 62 % 0 mm 0.0 W/m2 CLR
19:56 -16.6 °C -20.1 °C 34669.3 hPa WNW 15 km/h 15 km/h 63 % 0 mm 0.0 W/m2 CLR
20:01 -16.6 °C -20.1 °C 34669.3 hPa NW 20.9 km/h 20.9 km/h 63 % 0 mm 0.0 W/m2 CLR
20:06 -16.6 °C -20.1 °C 34682.8 hPa West 9 km/h   63 % 0 mm 0.0 W/m2 CLR
20:11 -16.8 °C -20.3 °C 34682.8 hPa Calm     63 % 0 mm 0.0 W/m2 CLR
20:16 -16.8 °C -20.1 °C 34682.8 hPa Calm     65 % 0 mm 0.0 W/m2 CLR
20:31 -17.2 °C -20.3 °C 34682.8 hPa WNW 17.9 km/h 17.9 km/h 66 % 0 mm 0.0 W/m2 CLR
20:36 -17.4 °C -20.6 °C 34682.8 hPa WNW 15 km/h 15 km/h 66 % 0 mm 0.0 W/m2 CLR
20:41 -17.4 °C -20.6 °C 34682.8 hPa WNW 11.9 km/h 11.9 km/h 66 % 0 mm 0.0 W/m2 CLR
20:46 -17.8 °C -20.9 °C 34682.8 hPa WNW 15 km/h 15 km/h 66 % 0 mm 0.0 W/m2 CLR
20:56 -17.8 °C -20.9 °C 34693 hPa WNW 17.9 km/h 17.9 km/h 66 % 0 mm 0.0 W/m2 CLR
21:01 -18.1 °C -21.1 °C 34693 hPa WNW 15.6 km/h 15.6 km/h 67 % 0 mm 0.0 W/m2 CLR
21:06 -18.1 °C -20.9 °C 34693 hPa WNW 15 km/h 15 km/h 68 % 0 mm 0.0 W/m2 CLR
21:16 -18.4 °C -21.3 °C 34703.1 hPa WNW 15 km/h 15 km/h 68 % 0 mm 0.0 W/m2 CLR
21:22 -18.4 °C -21.3 °C 34703.1 hPa WNW 3.1 km/h 3.1 km/h 68 % 0 mm 0.0 W/m2 CLR
21:27 -18.4 °C -21.3 °C 34703.1 hPa West 17.9 km/h 17.9 km/h 68 % 0 mm 0.0 W/m2 CLR
21:47 -18.1 °C -20.9 °C 34703.1 hPa West 23.8 km/h 23.8 km/h 69 % 0 mm 0.0 W/m2 CLR
21:52 -18.1 °C -20.9 °C 34703.1 hPa West 20.9 km/h 20.9 km/h 69 % 0 mm 0.0 W/m2 CLR
21:57 -18.1 °C -20.9 °C 34693 hPa WNW 23.8 km/h 23.8 km/h 69 % 0 mm 0.0 W/m2 CLR
22:02 -18.1 °C -20.9 °C 34693 hPa WNW 29.8 km/h 29.8 km/h 68 % 0 mm 0.0 W/m2 CLR
22:07 -18.1 °C -20.9 °C 34693 hPa West 32.8 km/h 32.8 km/h 69 % 0 mm 0.0 W/m2 CLR
22:27 -17.4 °C -20.3 °C 34703.1 hPa West 18.2 km/h 18.2 km/h 69 % 0 mm 0.0 W/m2 CLR
22:32 -17.4 °C -20.2 °C 34703.1 hPa West 17.9 km/h 17.9 km/h 70 % 0 mm 0.0 W/m2 CLR
22:37 -17.4 °C -20.1 °C 34703.1 hPa West 11.9 km/h 11.9 km/h 71 % 0 mm 0.0 W/m2 CLR
22:42 -17.4 °C -20.1 °C 34716.7 hPa WSW 9 km/h 9 km/h 71 % 0 mm 0.0 W/m2 CLR
22:47 -17.8 °C -20.2 °C 34726.8 hPa West 11.9 km/h 11.9 km/h 72 % 0 mm 0.0 W/m2 CLR
22:57 -17.8 °C -20.2 °C 34726.8 hPa WSW 9 km/h 9 km/h 72 % 0 mm 0.0 W/m2 CLR
23:07 -18.1 °C -20.4 °C 34740.4 hPa WSW 9 km/h 9 km/h 73 % 0 mm 0.0 W/m2 CLR
23:17 -18.1 °C -20.4 °C 34750.5 hPa West 10.3 km/h 10.3 km/h 73 % 0 mm 0.0 W/m2 CLR
23:27 -18.4 °C -20.8 °C 34760.7 hPa West 9 km/h 9 km/h 72 % 0 mm 0.0 W/m2 CLR
23:32 -18.4 °C -20.8 °C 34760.7 hPa Calm     72 % 0 mm 0.0 W/m2 CLR
23:37 -18.4 °C -20.7 °C 34760.7 hPa WNW 18.2 km/h 18.2 km/h 73 % 0 mm 0.0 W/m2 CLR
23:42 -18.4 °C -20.9 °C 34760.7 hPa WNW 33.6 km/h 33.6 km/h 71 % 0 mm 0.0 W/m2 CLR
23:47 -18.4 °C -21.3 °C 34760.7 hPa NW 29.8 km/h 29.8 km/h 68 % 0 mm 0.0 W/m2 CLR
23:52 -18.7 °C -21.7 °C 34760.7 hPa WNW 26.9 km/h 26.9 km/h 67 % 0 mm 0.0 W/m2 CLR
Lo Temps de Massalio
Compliments of Weather Underground - 1 mb